createdAt,value
2018-09-01T00:01:43.782Z,5.20
2018-09-01T00:04:12.250Z,5.20
2018-09-01T00:06:40.702Z,5.20
2018-09-01T00:09:09.354Z,5.20
2018-09-01T00:11:37.782Z,5.10
2018-09-01T00:14:06.474Z,5.10
2018-09-01T00:16:34.907Z,5.10
2018-09-01T00:19:03.322Z,5.10
2018-09-01T00:21:31.745Z,5.10
2018-09-01T00:24:04.374Z,5.10
2018-09-01T00:26:32.808Z,5.10
2018-09-01T00:29:01.322Z,5.00
2018-09-01T00:31:29.728Z,5.00
2018-09-01T00:33:58.123Z,5.00
2018-09-01T00:36:26.516Z,5.10
2018-09-01T00:39:01.007Z,5.20
2018-09-01T00:41:29.416Z,5.20
2018-09-01T00:43:57.902Z,5.20
2018-09-01T00:46:26.323Z,5.10
2018-09-01T00:48:54.861Z,5.00
2018-09-01T00:51:23.571Z,4.90
2018-09-01T00:53:52.078Z,4.90
2018-09-01T00:56:20.499Z,4.90
2018-09-01T00:58:48.970Z,4.90
2018-09-01T01:01:17.472Z,4.90
2018-09-01T01:03:45.891Z,4.90
2018-09-01T01:06:14.393Z,4.90
2018-09-01T01:08:42.873Z,4.90
2018-09-01T01:11:11.280Z,4.80
2018-09-01T01:13:39.655Z,4.70
2018-09-01T01:16:08.031Z,4.70
2018-09-01T01:18:36.436Z,4.70
2018-09-01T01:21:05.015Z,4.60
2018-09-01T01:23:33.338Z,4.60
2018-09-01T01:26:01.840Z,4.70
2018-09-01T01:28:30.223Z,4.60
2018-09-01T01:30:58.737Z,4.60
2018-09-01T01:33:27.047Z,4.70
2018-09-01T01:35:55.468Z,4.70
2018-09-01T01:38:23.866Z,4.70
2018-09-01T01:40:52.258Z,4.80
2018-09-01T01:43:20.657Z,4.70
2018-09-01T01:45:49.112Z,4.60
2018-09-01T01:48:17.536Z,4.60
2018-09-01T01:50:45.866Z,4.60
2018-09-01T01:53:14.458Z,4.50
2018-09-01T01:55:42.937Z,4.60
2018-09-01T01:58:11.386Z,4.60
2018-09-01T02:00:39.866Z,4.50
2018-09-01T02:03:08.283Z,4.50
2018-09-01T02:05:36.744Z,4.40
2018-09-01T02:08:05.398Z,4.50
2018-09-01T02:10:33.864Z,4.50
2018-09-01T02:13:02.239Z,4.50
2018-09-01T02:15:30.678Z,4.30
2018-09-01T02:17:59.108Z,4.30
2018-09-01T02:20:27.559Z,4.30
2018-09-01T02:22:55.883Z,4.20
2018-09-01T02:25:24.387Z,4.20
2018-09-01T02:27:52.878Z,4.20
2018-09-01T02:30:21.326Z,4.10
2018-09-01T02:32:49.753Z,4.20
2018-09-01T02:35:18.261Z,4.20
2018-09-01T02:37:46.766Z,4.30
2018-09-01T02:40:15.279Z,4.20
2018-09-01T02:42:43.755Z,4.20
2018-09-01T02:45:12.200Z,4.10
2018-09-01T02:47:40.694Z,4.10
2018-09-01T02:50:09.157Z,4.10
2018-09-01T02:52:37.569Z,4.00
2018-09-01T02:55:06.310Z,4.00
2018-09-01T02:57:34.809Z,3.90
2018-09-01T03:02:43.425Z,3.90
2018-09-01T03:05:12.634Z,3.90
2018-09-01T03:07:41.088Z,3.90
2018-09-01T03:10:09.533Z,3.90
2018-09-01T03:12:38.019Z,4.00
2018-09-01T03:15:06.919Z,3.90
2018-09-01T03:17:35.373Z,3.90
2018-09-01T03:20:03.811Z,3.90
2018-09-01T03:22:32.232Z,3.90
2018-09-01T03:25:00.578Z,3.80
2018-09-01T03:27:29.009Z,3.80
2018-09-01T03:29:57.426Z,3.80
2018-09-01T03:32:25.946Z,3.70
2018-09-01T03:34:54.409Z,3.70
2018-09-01T03:37:22.832Z,3.70
2018-09-01T03:39:51.230Z,3.70
2018-09-01T03:42:19.638Z,3.60
2018-09-01T03:44:48.054Z,3.70
2018-09-01T03:47:16.498Z,3.70
2018-09-01T03:49:45.010Z,3.60
2018-09-01T03:52:13.591Z,3.70
2018-09-01T03:54:42.014Z,3.80
2018-09-01T03:57:10.436Z,3.90
2018-09-01T03:59:38.847Z,4.00
2018-09-01T04:02:07.256Z,3.90
2018-09-01T04:04:35.673Z,3.80
2018-09-01T04:07:04.081Z,3.90
2018-09-01T04:09:32.553Z,3.80
2018-09-01T04:12:01.017Z,3.80
2018-09-01T04:14:29.447Z,3.70
2018-09-01T04:16:57.931Z,3.60
2018-09-01T04:19:26.359Z,3.60
2018-09-01T04:21:54.791Z,3.60
2018-09-01T04:24:23.217Z,3.50
2018-09-01T04:26:51.711Z,3.60
2018-09-01T04:29:20.174Z,3.70
2018-09-01T04:31:48.650Z,3.70
2018-09-01T04:34:18.110Z,3.80
2018-09-01T04:36:46.684Z,3.70
2018-09-01T04:39:16.243Z,3.60
2018-09-01T04:41:47.455Z,3.60
2018-09-01T04:44:15.916Z,3.50
2018-09-01T04:46:44.360Z,3.70
2018-09-01T04:49:12.757Z,3.60
2018-09-01T04:51:41.143Z,3.60
2018-09-01T04:54:09.583Z,3.50
2018-09-01T04:56:38.019Z,3.50
2018-09-01T04:59:06.430Z,3.50
2018-09-01T05:01:34.897Z,3.50
2018-09-01T05:04:03.404Z,3.60
2018-09-01T05:06:31.853Z,3.70
2018-09-01T05:09:00.363Z,3.70
2018-09-01T05:11:28.839Z,3.70
2018-09-01T05:13:57.318Z,3.70
2018-09-01T05:16:25.933Z,3.70
2018-09-01T05:18:54.650Z,3.90
2018-09-01T05:21:23.058Z,3.90
2018-09-01T05:23:51.564Z,4.00
2018-09-01T05:26:20.036Z,4.10
2018-09-01T05:28:48.492Z,4.10
2018-09-01T05:31:16.985Z,4.10
2018-09-01T05:33:45.629Z,4.20
2018-09-01T05:36:14.150Z,4.20
2018-09-01T05:38:42.646Z,4.20
2018-09-01T05:41:11.147Z,4.30
2018-09-01T05:43:39.605Z,4.30
2018-09-01T05:46:08.098Z,4.50
2018-09-01T05:48:36.619Z,4.60
2018-09-01T05:51:05.180Z,4.70
2018-09-01T05:53:33.709Z,4.80
2018-09-01T05:56:02.455Z,4.90
2018-09-01T05:58:30.970Z,5.00
2018-09-01T06:00:59.428Z,5.20
2018-09-01T06:03:27.893Z,5.30
2018-09-01T06:05:56.461Z,5.30
2018-09-01T06:08:24.873Z,5.40
2018-09-01T06:10:53.516Z,5.50
2018-09-01T06:13:22.017Z,5.60
2018-09-01T06:15:50.419Z,5.70
2018-09-01T06:18:18.884Z,5.80
2018-09-01T06:20:47.354Z,5.90
2018-09-01T06:23:15.784Z,6.10
2018-09-01T06:25:44.215Z,6.20
2018-09-01T06:28:18.896Z,6.30
2018-09-01T06:30:50.192Z,6.40
2018-09-01T06:33:18.578Z,6.60
2018-09-01T06:35:47.032Z,6.80
2018-09-01T06:38:15.457Z,7.00
2018-09-01T06:40:43.837Z,7.20
2018-09-01T06:43:12.394Z,7.30
2018-09-01T06:45:40.695Z,7.40
2018-09-01T06:48:09.136Z,7.50
2018-09-01T06:50:37.771Z,7.70
2018-09-01T06:53:06.234Z,7.90
2018-09-01T06:55:34.830Z,8.00
2018-09-01T06:58:03.267Z,8.20
2018-09-01T07:00:31.712Z,8.30
2018-09-01T07:03:00.120Z,8.50
2018-09-01T07:05:28.568Z,8.70
2018-09-01T07:07:57.041Z,8.90
2018-09-01T07:10:25.512Z,9.20
2018-09-01T07:12:53.891Z,9.40
2018-09-01T07:15:22.316Z,9.50
2018-09-01T07:17:50.832Z,9.70
2018-09-01T07:20:19.310Z,9.90
2018-09-01T07:22:47.775Z,10.00
2018-09-01T07:25:16.273Z,10.10
2018-09-01T07:27:44.779Z,10.20
2018-09-01T07:30:13.257Z,10.20
2018-09-01T07:32:41.698Z,10.20
2018-09-01T07:35:10.147Z,10.30
2018-09-01T07:37:38.614Z,10.40
2018-09-01T07:40:07.096Z,10.50
2018-09-01T07:42:35.599Z,10.60
2018-09-01T07:45:04.104Z,10.70
2018-09-01T07:47:32.578Z,10.80
2018-09-01T07:50:01.182Z,10.90
2018-09-01T07:52:29.638Z,10.90
2018-09-01T07:54:58.978Z,11.00
2018-09-01T07:57:27.431Z,11.10
2018-09-01T07:59:55.775Z,11.10
2018-09-01T08:02:24.131Z,11.20
2018-09-01T08:04:52.543Z,11.40
2018-09-01T08:07:21.015Z,11.50
2018-09-01T08:09:49.543Z,11.70
2018-09-01T08:12:18.011Z,11.90
2018-09-01T08:14:46.504Z,12.00
2018-09-01T08:17:14.942Z,12.00
2018-09-01T08:19:43.342Z,12.00
2018-09-01T08:22:11.781Z,12.10
2018-09-01T08:24:40.267Z,12.40
2018-09-01T08:27:08.804Z,12.60
2018-09-01T08:29:37.311Z,12.60
2018-09-01T08:32:05.813Z,12.70
2018-09-01T08:34:34.394Z,12.80
2018-09-01T08:37:02.886Z,13.00
2018-09-01T08:39:31.313Z,13.20
2018-09-01T08:42:00.714Z,13.30
2018-09-01T08:44:29.168Z,13.40
2018-09-01T08:46:57.644Z,13.60
2018-09-01T08:49:26.198Z,13.70
2018-09-01T08:51:54.807Z,13.70
2018-09-01T08:54:23.215Z,13.70
2018-09-01T08:56:51.902Z,13.90
2018-09-01T08:59:20.259Z,14.10
2018-09-01T09:01:48.671Z,14.30
2018-09-01T09:04:17.107Z,14.40
2018-09-01T09:06:45.466Z,14.70
2018-09-01T09:09:13.880Z,14.60
2018-09-01T09:11:42.404Z,14.60
2018-09-01T09:14:10.697Z,14.80
2018-09-01T09:16:39.171Z,14.90
2018-09-01T09:19:07.546Z,14.90
2018-09-01T09:21:35.927Z,14.90
2018-09-01T09:24:04.368Z,14.90
2018-09-01T09:26:32.745Z,15.20
2018-09-01T09:29:01.105Z,15.30
2018-09-01T09:31:29.468Z,15.30
2018-09-01T09:33:57.940Z,15.50
2018-09-01T09:36:26.334Z,15.60
2018-09-01T09:38:54.723Z,15.70
2018-09-01T09:41:23.090Z,15.50
2018-09-01T09:43:51.461Z,14.70
2018-09-01T09:46:19.780Z,14.60
2018-09-01T09:48:48.114Z,14.50
2018-09-01T09:51:16.460Z,14.60
2018-09-01T09:53:44.964Z,14.60
2018-09-01T09:56:13.399Z,14.60
2018-09-01T09:58:41.834Z,14.60
2018-09-01T10:01:15.647Z,14.80
2018-09-01T10:03:44.091Z,14.70
2018-09-01T10:06:12.527Z,15.00
2018-09-01T10:08:40.936Z,15.30
2018-09-01T10:11:09.390Z,15.40
2018-09-01T10:13:37.694Z,15.30
2018-09-01T10:16:06.114Z,15.20
2018-09-01T10:18:34.465Z,14.90
2018-09-01T10:21:02.906Z,14.70
2018-09-01T10:23:31.326Z,14.80
2018-09-01T10:25:59.810Z,15.00
2018-09-01T10:28:28.202Z,15.20
2018-09-01T10:30:56.611Z,15.00
2018-09-01T10:33:25.101Z,15.20
2018-09-01T10:35:53.467Z,15.10
2018-09-01T10:38:21.864Z,15.00
2018-09-01T10:40:50.226Z,15.10
2018-09-01T10:43:18.609Z,15.10
2018-09-01T10:45:47.014Z,15.40
2018-09-01T10:48:15.455Z,15.50
2018-09-01T10:50:43.936Z,15.60
2018-09-01T10:53:12.375Z,15.70
2018-09-01T10:55:40.775Z,15.90
2018-09-01T10:58:09.240Z,16.00
2018-09-01T11:00:37.638Z,16.20
2018-09-01T11:03:06.012Z,16.30
2018-09-01T11:05:34.533Z,16.40
2018-09-01T11:08:02.947Z,16.50
2018-09-01T11:10:31.420Z,16.80
2018-09-01T11:12:59.915Z,16.90
2018-09-01T11:15:28.394Z,17.10
2018-09-01T11:17:56.810Z,16.90
2018-09-01T11:20:25.264Z,16.60
2018-09-01T11:22:55.094Z,16.70
2018-09-01T11:25:23.560Z,16.60
2018-09-01T11:27:52.097Z,16.70
2018-09-01T11:30:20.495Z,16.70
2018-09-01T11:32:48.986Z,16.50
2018-09-01T11:35:17.487Z,16.50
2018-09-01T11:37:46.019Z,16.40
2018-09-01T11:40:14.511Z,16.30
2018-09-01T11:42:42.985Z,16.60
2018-09-01T11:45:11.531Z,16.90
2018-09-01T11:47:40.187Z,16.90
2018-09-01T11:50:08.649Z,16.70
2018-09-01T11:52:37.126Z,16.70
2018-09-01T11:55:05.985Z,16.80
2018-09-01T11:57:34.445Z,16.70
2018-09-01T12:00:03.021Z,16.60
2018-09-01T12:02:31.565Z,16.60
2018-09-01T12:05:00.101Z,16.60
2018-09-01T12:07:28.692Z,16.40
2018-09-01T12:09:57.243Z,16.30
2018-09-01T12:12:25.678Z,16.50
2018-09-01T12:14:54.170Z,16.60
2018-09-01T12:17:22.657Z,16.70
2018-09-01T12:19:51.332Z,16.90
2018-09-01T12:22:19.809Z,17.30
2018-09-01T12:24:48.293Z,17.30
2018-09-01T12:27:16.714Z,17.40
2018-09-01T12:29:45.352Z,17.70
2018-09-01T12:32:13.748Z,17.90
2018-09-01T12:34:42.413Z,18.30
2018-09-01T12:37:10.868Z,18.40
2018-09-01T12:39:39.368Z,18.40
2018-09-01T12:42:08.090Z,18.50
2018-09-01T12:44:36.570Z,18.50
2018-09-01T12:47:05.042Z,17.90
2018-09-01T12:49:33.477Z,17.50
2018-09-01T12:52:01.966Z,17.50
2018-09-01T12:54:30.425Z,18.00
2018-09-01T12:56:58.863Z,18.60
2018-09-01T12:59:27.427Z,19.00
2018-09-01T13:01:55.926Z,19.30
2018-09-01T13:04:24.438Z,19.50
2018-09-01T13:06:52.872Z,19.90
2018-09-01T13:09:21.358Z,19.70
2018-09-01T13:11:49.731Z,19.50
2018-09-01T13:14:18.325Z,19.00
2018-09-01T13:16:46.808Z,18.30
2018-09-01T13:19:15.246Z,18.30
2018-09-01T13:21:43.715Z,19.10
2018-09-01T13:24:12.212Z,20.10
2018-09-01T13:26:40.724Z,20.60
2018-09-01T13:29:09.146Z,21.70
2018-09-01T13:31:37.655Z,21.10
2018-09-01T13:34:06.176Z,19.40
2018-09-01T13:36:34.612Z,18.20
2018-09-01T13:39:03.230Z,17.50
2018-09-01T13:41:31.440Z,17.30
2018-09-01T13:43:59.850Z,17.40
2018-09-01T13:46:28.348Z,17.30
2018-09-01T13:48:56.833Z,17.10
2018-09-01T13:51:25.313Z,17.80
2018-09-01T13:53:53.780Z,18.80
2018-09-01T13:56:22.255Z,20.20
2018-09-01T13:58:50.689Z,21.20
2018-09-01T14:01:19.130Z,21.80
2018-09-01T14:03:47.648Z,21.90
2018-09-01T14:06:16.046Z,21.50
2018-09-01T14:08:44.544Z,20.60
2018-09-01T14:11:13.015Z,19.40
2018-09-01T14:13:41.537Z,18.40
2018-09-01T14:16:10.033Z,17.50
2018-09-01T14:18:38.543Z,17.10
2018-09-01T14:21:07.248Z,17.30
2018-09-01T14:23:35.713Z,17.70
2018-09-01T14:26:04.245Z,18.90
2018-09-01T14:28:32.760Z,19.70
2018-09-01T14:31:01.223Z,20.50
2018-09-01T14:33:29.726Z,21.30
2018-09-01T14:35:58.241Z,21.80
2018-09-01T14:38:26.849Z,22.10
2018-09-01T14:40:55.306Z,22.10
2018-09-01T14:43:23.789Z,20.90
2018-09-01T14:45:52.326Z,19.60
2018-09-01T14:48:20.838Z,18.60
2018-09-01T14:50:49.226Z,18.10
2018-09-01T14:53:18.140Z,18.30
2018-09-01T14:55:46.585Z,19.00
2018-09-01T14:58:15.047Z,18.90
2018-09-01T15:00:43.529Z,18.60
2018-09-01T15:03:12.073Z,19.20
2018-09-01T15:05:40.650Z,19.60
2018-09-01T15:08:09.126Z,19.60
2018-09-01T15:10:37.584Z,19.80
2018-09-01T15:13:06.103Z,20.00
2018-09-01T15:15:34.585Z,20.60
2018-09-01T15:18:03.070Z,21.40
2018-09-01T15:20:31.558Z,20.90
2018-09-01T15:23:00.019Z,20.50
2018-09-01T15:25:28.521Z,20.00
2018-09-01T15:27:57.002Z,19.20
2018-09-01T15:30:25.460Z,18.40
2018-09-01T15:32:53.927Z,19.10
2018-09-01T15:35:22.543Z,19.80
2018-09-01T15:37:50.974Z,21.00
2018-09-01T15:40:19.423Z,21.10
2018-09-01T15:42:47.826Z,20.10
2018-09-01T15:45:16.248Z,18.80
2018-09-01T15:47:44.674Z,17.90
2018-09-01T15:50:13.148Z,17.10
2018-09-01T15:52:41.550Z,16.50
2018-09-01T15:55:10.020Z,16.30
2018-09-01T15:57:38.459Z,16.80
2018-09-01T16:00:07.218Z,18.30
2018-09-01T16:02:35.739Z,19.80
2018-09-01T16:05:04.204Z,20.30
2018-09-01T16:07:32.688Z,20.60
2018-09-01T16:10:01.144Z,20.30
2018-09-01T16:12:29.604Z,20.70
2018-09-01T16:14:58.076Z,21.20
2018-09-01T16:17:26.518Z,21.10
2018-09-01T16:19:54.922Z,20.70
2018-09-01T16:22:23.411Z,20.40
2018-09-01T16:24:51.879Z,19.40
2018-09-01T16:27:20.370Z,19.00
2018-09-01T16:29:48.839Z,19.70
2018-09-01T16:32:17.283Z,20.20
2018-09-01T16:34:46.208Z,20.20
2018-09-01T16:37:14.783Z,20.50
2018-09-01T16:39:43.272Z,20.80
2018-09-01T16:42:11.724Z,20.70
2018-09-01T16:44:40.161Z,20.80
2018-09-01T16:47:08.691Z,19.80
2018-09-01T16:49:37.103Z,19.30
2018-09-01T16:52:05.560Z,18.90
2018-09-01T16:54:33.990Z,18.40
2018-09-01T16:57:02.403Z,17.80
2018-09-01T16:59:30.903Z,17.70
2018-09-01T17:01:59.435Z,17.60
2018-09-01T17:04:27.880Z,17.60
2018-09-01T17:06:56.394Z,18.10
2018-09-01T17:09:24.835Z,18.50
2018-09-01T17:11:53.295Z,18.70
2018-09-01T17:14:21.781Z,19.10
2018-09-01T17:16:50.197Z,19.30
2018-09-01T17:19:18.724Z,19.60
2018-09-01T17:21:47.270Z,19.70
2018-09-01T17:24:15.703Z,19.60
2018-09-01T17:26:44.136Z,19.40
2018-09-01T17:29:12.624Z,19.20
2018-09-01T17:31:41.091Z,19.00
2018-09-01T17:34:09.556Z,18.60
2018-09-01T17:36:38.283Z,17.70
2018-09-01T17:39:08.693Z,16.90
2018-09-01T17:41:37.200Z,16.40
2018-09-01T17:44:05.882Z,16.00
2018-09-01T17:46:35.773Z,15.80
2018-09-01T17:49:04.306Z,15.30
2018-09-01T17:51:32.832Z,15.00
2018-09-01T17:54:01.461Z,14.80
2018-09-01T17:56:29.982Z,14.60
2018-09-01T17:58:58.439Z,14.40
2018-09-01T18:01:27.460Z,14.30
2018-09-01T18:03:56.002Z,14.20
2018-09-01T18:06:24.801Z,14.10
2018-09-01T18:08:53.318Z,13.90
2018-09-01T18:11:21.852Z,13.80
2018-09-01T18:13:50.470Z,13.60
2018-09-01T18:16:18.900Z,13.50
2018-09-01T18:18:47.349Z,13.40
2018-09-01T18:21:15.847Z,13.30
2018-09-01T18:23:44.326Z,13.20
2018-09-01T18:26:12.805Z,13.20
2018-09-01T18:28:41.345Z,13.10
2018-09-01T18:31:09.831Z,12.90
2018-09-01T18:33:38.279Z,12.80
2018-09-01T18:36:06.768Z,12.60
2018-09-01T18:38:35.195Z,12.40
2018-09-01T18:41:03.762Z,12.30
2018-09-01T18:43:32.059Z,12.20
2018-09-01T18:46:00.463Z,12.10
2018-09-01T18:48:28.936Z,12.10
2018-09-01T18:50:57.370Z,12.00
2018-09-01T18:53:25.779Z,11.90
2018-09-01T18:55:54.098Z,11.80
2018-09-01T18:58:22.592Z,11.60
2018-09-01T19:00:51.070Z,11.40
2018-09-01T19:03:19.498Z,11.20
2018-09-01T19:05:47.961Z,11.10
2018-09-01T19:08:16.339Z,10.90
2018-09-01T19:10:44.767Z,10.70
2018-09-01T19:13:13.190Z,10.60
2018-09-01T19:15:41.639Z,10.50
2018-09-01T19:18:10.030Z,10.40
2018-09-01T19:20:38.449Z,10.30
2018-09-01T19:23:06.823Z,10.20
2018-09-01T19:25:35.273Z,10.20
2018-09-01T19:28:03.650Z,10.00
2018-09-01T19:30:32.073Z,9.90
2018-09-01T19:33:00.566Z,9.80
2018-09-01T19:35:29.128Z,9.60
2018-09-01T19:37:57.602Z,9.50
2018-09-01T19:40:26.077Z,9.50
2018-09-01T19:42:54.609Z,9.40
2018-09-01T19:45:23.193Z,9.30
2018-09-01T19:47:51.651Z,9.20
2018-09-01T19:50:20.030Z,9.00
2018-09-01T19:52:48.646Z,8.90
2018-09-01T19:55:17.235Z,8.90
2018-09-01T19:57:45.727Z,8.80
2018-09-01T20:00:14.255Z,8.90
2018-09-01T20:02:42.754Z,8.80
2018-09-01T20:05:11.289Z,8.70
2018-09-01T20:07:39.774Z,8.60
2018-09-01T20:10:08.325Z,8.60
2018-09-01T20:12:36.814Z,8.50
2018-09-01T20:15:05.344Z,8.40
2018-09-01T20:17:33.838Z,8.30
2018-09-01T20:20:02.315Z,8.20
2018-09-01T20:22:30.775Z,8.20
2018-09-01T20:24:59.276Z,8.10
2018-09-01T20:27:27.781Z,8.00
2018-09-01T20:29:56.259Z,8.00
2018-09-01T20:32:24.754Z,7.90
2018-09-01T20:34:53.287Z,7.90
2018-09-01T20:37:21.779Z,7.90
2018-09-01T20:39:50.257Z,7.80
2018-09-01T20:42:18.750Z,7.70
2018-09-01T20:44:47.210Z,7.80
2018-09-01T20:47:15.787Z,7.70
2018-09-01T20:49:44.281Z,7.70
2018-09-01T20:52:12.741Z,7.70
2018-09-01T20:54:41.271Z,7.60
2018-09-01T20:57:09.766Z,7.50
2018-09-01T20:59:38.411Z,7.40
2018-09-01T21:02:06.930Z,7.40
2018-09-01T21:04:35.410Z,7.30
2018-09-01T21:07:03.842Z,7.30
2018-09-01T21:09:32.291Z,7.20
2018-09-01T21:12:00.790Z,7.10
2018-09-01T21:14:29.343Z,7.20
2018-09-01T21:16:57.771Z,7.10
2018-09-01T21:19:26.287Z,7.10
2018-09-01T21:21:54.783Z,7.00
2018-09-01T21:24:23.309Z,7.00
2018-09-01T21:26:52.076Z,6.90
2018-09-01T21:29:20.532Z,6.90
2018-09-01T21:31:48.982Z,6.90
2018-09-01T21:34:17.527Z,6.90
2018-09-01T21:36:45.951Z,6.80
2018-09-01T21:39:14.410Z,6.70
2018-09-01T21:41:42.927Z,6.70
2018-09-01T21:44:11.391Z,6.70
2018-09-01T21:46:39.924Z,6.60
2018-09-01T21:49:08.458Z,6.70
2018-09-01T21:51:37.027Z,6.70
2018-09-01T21:54:05.556Z,6.60
2018-09-01T21:56:34.043Z,6.60
2018-09-01T21:59:02.632Z,6.60
2018-09-01T22:01:33.835Z,6.50
2018-09-01T22:04:02.317Z,6.50
2018-09-01T22:06:30.818Z,6.50
2018-09-01T22:08:59.301Z,6.40
2018-09-01T22:11:27.744Z,6.40
2018-09-01T22:13:56.187Z,6.40
2018-09-01T22:16:24.761Z,6.40
2018-09-01T22:18:53.351Z,6.50
2018-09-01T22:21:21.862Z,6.50
2018-09-01T22:23:50.315Z,6.40
2018-09-01T22:26:18.736Z,6.40
2018-09-01T22:28:47.158Z,6.40
2018-09-01T22:31:15.652Z,6.40
2018-09-01T22:33:44.145Z,6.30
2018-09-01T22:36:12.606Z,6.20
2018-09-01T22:38:41.108Z,6.20
2018-09-01T22:41:09.650Z,6.20
2018-09-01T22:43:38.143Z,6.20
2018-09-01T22:46:06.635Z,6.10
2018-09-01T22:48:35.173Z,6.10
2018-09-01T22:51:03.705Z,6.10
2018-09-01T22:53:32.238Z,6.00
2018-09-01T22:56:00.762Z,6.00
2018-09-01T22:58:29.165Z,6.00
2018-09-01T23:00:57.681Z,6.00
2018-09-01T23:03:26.185Z,6.00
2018-09-01T23:05:54.746Z,5.90
2018-09-01T23:08:23.217Z,5.90
2018-09-01T23:10:51.668Z,5.90
2018-09-01T23:13:20.110Z,6.00
2018-09-01T23:15:48.578Z,6.00
2018-09-01T23:18:16.978Z,5.90
2018-09-01T23:20:45.474Z,5.80
2018-09-01T23:23:13.947Z,5.80
2018-09-01T23:25:42.440Z,5.80
2018-09-01T23:28:10.916Z,5.80
2018-09-01T23:30:39.421Z,5.80
2018-09-01T23:33:07.928Z,5.70
2018-09-01T23:35:36.350Z,5.70
2018-09-01T23:38:04.823Z,5.70
2018-09-01T23:40:33.406Z,5.80
2018-09-01T23:43:01.847Z,5.70
2018-09-01T23:45:30.343Z,5.70
2018-09-01T23:47:58.835Z,5.70
2018-09-01T23:50:27.454Z,5.60
2018-09-01T23:52:55.835Z,5.60
2018-09-01T23:55:24.298Z,5.60
2018-09-01T23:57:52.677Z,5.60
